sensor_id;sensor_type;location;lat;lon;timestamp;pressure;altitude;pressure_sealevel;temperature;humidity
11395;BME280;5753;54.402;10.220;2023-02-05T00:02:24;103928.97;;;8.41;44.83
11395;BME280;5753;54.402;10.220;2023-02-05T00:04:50;103918.66;;;7.18;47.83
11395;BME280;5753;54.402;10.220;2023-02-05T00:07:16;103910.16;;;6.87;49.07
11395;BME280;5753;54.402;10.220;2023-02-05T00:09:42;103900.69;;;7.40;47.40
11395;BME280;5753;54.402;10.220;2023-02-05T00:12:09;103888.56;;;7.49;46.95
11395;BME280;5753;54.402;10.220;2023-02-05T00:14:35;103894.72;;;7.51;46.76
11395;BME280;5753;54.402;10.220;2023-02-05T00:17:01;103880.66;;;8.25;45.07
11395;BME280;5753;54.402;10.220;2023-02-05T00:19:28;103872.53;;;7.97;45.57
11395;BME280;5753;54.402;10.220;2023-02-05T00:21:54;103861.06;;;7.58;46.50
11395;BME280;5753;54.402;10.220;2023-02-05T00:24:20;103855.94;;;7.58;46.14
11395;BME280;5753;54.402;10.220;2023-02-05T00:26:46;103854.69;;;7.32;47.27
11395;BME280;5753;54.402;10.220;2023-02-05T00:29:12;103849.28;;;6.85;48.27
11395;BME280;5753;54.402;10.220;2023-02-05T00:31:39;103844.72;;;7.92;46.42
11395;BME280;5753;54.402;10.220;2023-02-05T00:34:05;103846.63;;;7.94;45.71
11395;BME280;5753;54.402;10.220;2023-02-05T00:36:31;103851.16;;;8.08;45.69
11395;BME280;5753;54.402;10.220;2023-02-05T00:38:57;103851.56;;;6.92;47.76
11395;BME280;5753;54.402;10.220;2023-02-05T00:41:23;103855.63;;;7.44;46.49
11395;BME280;5753;54.402;10.220;2023-02-05T00:43:49;103848.69;;;8.10;45.95
11395;BME280;5753;54.402;10.220;2023-02-05T00:46:16;103849.75;;;7.90;46.28
11395;BME280;5753;54.402;10.220;2023-02-05T00:48:42;103840.66;;;8.17;45.81
11395;BME280;5753;54.402;10.220;2023-02-05T00:51:10;103829.03;;;8.22;45.29
11395;BME280;5753;54.402;10.220;2023-02-05T00:53:36;103835.00;;;7.20;47.36
11395;BME280;5753;54.402;10.220;2023-02-05T00:56:03;103815.66;;;8.38;45.78
11395;BME280;5753;54.402;10.220;2023-02-05T00:58:29;103811.66;;;7.73;45.98
11395;BME280;5753;54.402;10.220;2023-02-05T01:00:56;103808.66;;;7.78;46.49
11395;BME280;5753;54.402;10.220;2023-02-05T01:03:23;103802.28;;;7.40;47.30
11395;BME280;5753;54.402;10.220;2023-02-05T01:05:49;103795.88;;;8.37;45.21
11395;BME280;5753;54.402;10.220;2023-02-05T01:08:15;103801.88;;;8.14;45.50
11395;BME280;5753;54.402;10.220;2023-02-05T01:10:47;103805.72;;;7.29;47.58
11395;BME280;5753;54.402;10.220;2023-02-05T01:13:14;103792.34;;;7.78;45.84
11395;BME280;5753;54.402;10.220;2023-02-05T01:15:41;103805.16;;;7.33;48.15
11395;BME280;5753;54.402;10.220;2023-02-05T01:18:07;103790.84;;;8.15;45.26
11395;BME280;5753;54.402;10.220;2023-02-05T01:20:39;103797.53;;;7.56;47.01
11395;BME280;5753;54.402;10.220;2023-02-05T01:23:05;103796.41;;;8.21;45.39
11395;BME280;5753;54.402;10.220;2023-02-05T01:25:31;103792.47;;;7.46;46.79
11395;BME280;5753;54.402;10.220;2023-02-05T01:27:57;103785.03;;;6.61;48.63
11395;BME280;5753;54.402;10.220;2023-02-05T01:30:24;103777.50;;;7.29;47.62
11395;BME280;5753;54.402;10.220;2023-02-05T01:32:50;103765.94;;;8.14;45.69
11395;BME280;5753;54.402;10.220;2023-02-05T01:35:17;103774.50;;;7.34;47.47
11395;BME280;5753;54.402;10.220;2023-02-05T01:37:43;103762.66;;;7.81;46.52
11395;BME280;5753;54.402;10.220;2023-02-05T01:40:16;103751.94;;;7.75;46.12
11395;BME280;5753;54.402;10.220;2023-02-05T01:42:43;103754.06;;;7.24;47.88
11395;BME280;5753;54.402;10.220;2023-02-05T01:47:52;103748.47;;;6.74;48.74
11395;BME280;5753;54.402;10.220;2023-02-05T01:50:28;103740.03;;;6.75;49.38
11395;BME280;5753;54.402;10.220;2023-02-05T01:52:59;103750.03;;;7.73;46.53
11395;BME280;5753;54.402;10.220;2023-02-05T01:55:28;103751.97;;;7.08;48.08
11395;BME280;5753;54.402;10.220;2023-02-05T01:57:55;103751.84;;;7.07;48.67
11395;BME280;5753;54.402;10.220;2023-02-05T02:00:22;103753.38;;;6.71;48.72
11395;BME280;5753;54.402;10.220;2023-02-05T02:02:49;103756.06;;;7.73;46.15
11395;BME280;5753;54.402;10.220;2023-02-05T02:05:16;103756.28;;;8.00;46.16
11395;BME280;5753;54.402;10.220;2023-02-05T02:07:43;103760.16;;;6.71;48.38
11395;BME280;5753;54.402;10.220;2023-02-05T02:10:11;103760.22;;;7.95;46.61
11395;BME280;5753;54.402;10.220;2023-02-05T02:12:40;103760.53;;;7.31;47.47
11395;BME280;5753;54.402;10.220;2023-02-05T02:15:17;103749.81;;;6.59;48.96
11395;BME280;5753;54.402;10.220;2023-02-05T02:17:48;103752.31;;;7.46;47.08
11395;BME280;5753;54.402;10.220;2023-02-05T02:20:23;103762.88;;;8.66;45.17
11395;BME280;5753;54.402;10.220;2023-02-05T02:23:10;103758.44;;;8.05;45.70
11395;BME280;5753;54.402;10.220;2023-02-05T02:28:34;103767.38;;;8.57;44.60
11395;BME280;5753;54.402;10.220;2023-02-05T02:31:12;103769.50;;;8.39;45.36
11395;BME280;5753;54.402;10.220;2023-02-05T02:33:49;103762.69;;;8.40;44.59
11395;BME280;5753;54.402;10.220;2023-02-05T02:36:37;103765.13;;;8.50;44.69
11395;BME280;5753;54.402;10.220;2023-02-05T02:39:16;103765.69;;;7.42;47.34
11395;BME280;5753;54.402;10.220;2023-02-05T02:44:41;103757.53;;;8.40;45.32
11395;BME280;5753;54.402;10.220;2023-02-05T02:47:19;103765.38;;;8.06;45.72
11395;BME280;5753;54.402;10.220;2023-02-05T02:49:59;103768.75;;;8.77;44.42
11395;BME280;5753;54.402;10.220;2023-02-05T02:52:27;103760.47;;;8.09;45.66
11395;BME280;5753;54.402;10.220;2023-02-05T02:54:57;103761.53;;;7.78;45.52
11395;BME280;5753;54.402;10.220;2023-02-05T02:57:27;103761.22;;;8.92;44.14
11395;BME280;5753;54.402;10.220;2023-02-05T02:59:57;103763.78;;;8.43;45.67
11395;BME280;5753;54.402;10.220;2023-02-05T03:02:29;103758.09;;;8.24;45.65
11395;BME280;5753;54.402;10.220;2023-02-05T03:05:00;103762.06;;;6.19;50.31
11395;BME280;5753;54.402;10.220;2023-02-05T03:07:35;103749.50;;;6.22;50.27
11395;BME280;5753;54.402;10.220;2023-02-05T03:12:38;103725.47;;;8.23;44.86
11395;BME280;5753;54.402;10.220;2023-02-05T03:15:05;103733.88;;;8.09;44.62
11395;BME280;5753;54.402;10.220;2023-02-05T03:17:31;103715.72;;;6.06;49.60
11395;BME280;5753;54.402;10.220;2023-02-05T03:22:34;103703.66;;;8.53;44.16
11395;BME280;5753;54.402;10.220;2023-02-05T03:25:02;103695.75;;;8.03;44.79
11395;BME280;5753;54.402;10.220;2023-02-05T03:27:28;103687.13;;;7.21;47.07
11395;BME280;5753;54.402;10.220;2023-02-05T03:29:55;103669.31;;;8.16;45.01
11395;BME280;5753;54.402;10.220;2023-02-05T03:40:50;103653.94;;;7.81;46.95
11395;BME280;5753;54.402;10.220;2023-02-05T03:43:31;103648.44;;;7.88;45.90
11395;BME280;5753;54.402;10.220;2023-02-05T03:51:55;103651.28;;;8.28;45.09
11395;BME280;5753;54.402;10.220;2023-02-05T03:54:35;103662.94;;;7.52;47.00
11395;BME280;5753;54.402;10.220;2023-02-05T03:59:46;103659.88;;;8.28;45.07
11395;BME280;5753;54.402;10.220;2023-02-05T04:02:12;103660.88;;;9.17;43.15
11395;BME280;5753;54.402;10.220;2023-02-05T04:04:40;103659.47;;;8.34;44.90
11395;BME280;5753;54.402;10.220;2023-02-05T04:07:06;103658.28;;;7.82;46.75
11395;BME280;5753;54.402;10.220;2023-02-05T04:09:33;103654.81;;;8.78;43.64
11395;BME280;5753;54.402;10.220;2023-02-05T04:11:59;103643.19;;;7.86;45.57
11395;BME280;5753;54.402;10.220;2023-02-05T04:14:25;103639.84;;;7.17;47.64
11395;BME280;5753;54.402;10.220;2023-02-05T04:16:51;103626.69;;;7.24;47.11
11395;BME280;5753;54.402;10.220;2023-02-05T04:19:17;103627.81;;;7.75;45.69
11395;BME280;5753;54.402;10.220;2023-02-05T04:21:43;103626.31;;;8.13;45.65
11395;BME280;5753;54.402;10.220;2023-02-05T04:24:10;103614.50;;;8.52;44.80
11395;BME280;5753;54.402;10.220;2023-02-05T04:26:36;103610.50;;;7.49;46.16
11395;BME280;5753;54.402;10.220;2023-02-05T04:29:02;103603.44;;;6.32;48.82
11395;BME280;5753;54.402;10.220;2023-02-05T04:31:28;103596.84;;;6.58;49.56
11395;BME280;5753;54.402;10.220;2023-02-05T04:33:54;103584.13;;;6.48;49.03
11395;BME280;5753;54.402;10.220;2023-02-05T04:36:21;103580.81;;;7.06;47.89
11395;BME280;5753;54.402;10.220;2023-02-05T04:38:47;103569.69;;;6.60;48.81
11395;BME280;5753;54.402;10.220;2023-02-05T04:41:13;103563.31;;;6.21;49.99
11395;BME280;5753;54.402;10.220;2023-02-05T04:43:39;103546.16;;;7.34;48.11
11395;BME280;5753;54.402;10.220;2023-02-05T04:46:07;103545.81;;;7.65;47.25
11395;BME280;5753;54.402;10.220;2023-02-05T04:48:33;103545.59;;;7.62;46.67
11395;BME280;5753;54.402;10.220;2023-02-05T04:50:59;103545.13;;;6.85;48.06
11395;BME280;5753;54.402;10.220;2023-02-05T04:53:30;103566.91;;;7.61;45.93
11395;BME280;5753;54.402;10.220;2023-02-05T04:56:07;103577.28;;;7.27;47.70
11395;BME280;5753;54.402;10.220;2023-02-05T04:58:34;103578.09;;;8.97;44.04
11395;BME280;5753;54.402;10.220;2023-02-05T05:01:01;103585.19;;;7.53;45.61
11395;BME280;5753;54.402;10.220;2023-02-05T05:03:27;103580.22;;;6.86;48.31
11395;BME280;5753;54.402;10.220;2023-02-05T05:05:53;103585.59;;;7.83;45.63
11395;BME280;5753;54.402;10.220;2023-02-05T05:08:20;103590.41;;;8.27;44.94
11395;BME280;5753;54.402;10.220;2023-02-05T05:10:46;103591.84;;;7.86;46.08
11395;BME280;5753;54.402;10.220;2023-02-05T05:13:12;103587.97;;;7.80;46.44
11395;BME280;5753;54.402;10.220;2023-02-05T05:15:39;103590.44;;;6.63;48.07
11395;BME280;5753;54.402;10.220;2023-02-05T05:18:05;103596.75;;;7.95;45.86
11395;BME280;5753;54.402;10.220;2023-02-05T05:20:31;103603.22;;;6.29;48.98
11395;BME280;5753;54.402;10.220;2023-02-05T05:22:58;103601.56;;;8.39;44.86
11395;BME280;5753;54.402;10.220;2023-02-05T05:25:25;103601.94;;;7.25;47.15
11395;BME280;5753;54.402;10.220;2023-02-05T05:27:51;103602.09;;;7.98;45.32
11395;BME280;5753;54.402;10.220;2023-02-05T05:30:17;103598.56;;;8.82;44.30
11395;BME280;5753;54.402;10.220;2023-02-05T05:32:43;103596.25;;;8.49;43.79
11395;BME280;5753;54.402;10.220;2023-02-05T05:35:09;103608.59;;;8.30;44.71
11395;BME280;5753;54.402;10.220;2023-02-05T05:37:36;103596.44;;;7.55;46.85
11395;BME280;5753;54.402;10.220;2023-02-05T05:40:02;103596.13;;;7.74;46.20
11395;BME280;5753;54.402;10.220;2023-02-05T05:42:46;103592.44;;;7.24;47.62
11395;BME280;5753;54.402;10.220;2023-02-05T05:45:31;103583.44;;;8.87;44.08
11395;BME280;5753;54.402;10.220;2023-02-05T05:47:57;103577.75;;;8.05;45.30
11395;BME280;5753;54.402;10.220;2023-02-05T05:50:23;103570.22;;;8.56;44.39
11395;BME280;5753;54.402;10.220;2023-02-05T05:52:49;103568.38;;;8.67;44.49
11395;BME280;5753;54.402;10.220;2023-02-05T05:55:15;103561.88;;;8.98;43.97
11395;BME280;5753;54.402;10.220;2023-02-05T05:57:42;103568.38;;;7.22;47.75
11395;BME280;5753;54.402;10.220;2023-02-05T06:00:08;103554.50;;;8.03;45.76
11395;BME280;5753;54.402;10.220;2023-02-05T06:02:39;103557.78;;;8.26;45.52
11395;BME280;5753;54.402;10.220;2023-02-05T06:05:06;103549.50;;;8.05;45.85
11395;BME280;5753;54.402;10.220;2023-02-05T06:07:32;103550.56;;;7.83;45.97
11395;BME280;5753;54.402;10.220;2023-02-05T06:10:06;103538.75;;;8.10;45.81
11395;BME280;5753;54.402;10.220;2023-02-05T06:12:32;103529.13;;;7.83;46.05
11395;BME280;5753;54.402;10.220;2023-02-05T06:14:58;103528.28;;;7.47;46.63
11395;BME280;5753;54.402;10.220;2023-02-05T06:17:24;103528.88;;;7.32;47.51
11395;BME280;5753;54.402;10.220;2023-02-05T06:19:51;103526.34;;;7.80;46.35
11395;BME280;5753;54.402;10.220;2023-02-05T06:22:17;103535.63;;;7.78;46.17
11395;BME280;5753;54.402;10.220;2023-02-05T06:24:43;103534.31;;;7.01;47.90
11395;BME280;5753;54.402;10.220;2023-02-05T06:27:09;103530.75;;;7.34;47.93
11395;BME280;5753;54.402;10.220;2023-02-05T06:29:35;103536.69;;;7.93;46.98
11395;BME280;5753;54.402;10.220;2023-02-05T06:32:01;103524.03;;;7.96;46.51
11395;BME280;5753;54.402;10.220;2023-02-05T06:34:27;103530.66;;;7.33;47.18
11395;BME280;5753;54.402;10.220;2023-02-05T06:36:54;103539.38;;;7.83;46.77
11395;BME280;5753;54.402;10.220;2023-02-05T06:39:21;103537.28;;;8.14;46.31
11395;BME280;5753;54.402;10.220;2023-02-05T06:41:47;103539.09;;;8.65;44.95
11395;BME280;5753;54.402;10.220;2023-02-05T06:44:13;103537.78;;;7.97;46.35
11395;BME280;5753;54.402;10.220;2023-02-05T06:46:39;103541.06;;;8.69;44.91
11395;BME280;5753;54.402;10.220;2023-02-05T06:49:06;103546.00;;;8.66;44.53
11395;BME280;5753;54.402;10.220;2023-02-05T06:51:32;103547.16;;;9.22;42.62
11395;BME280;5753;54.402;10.220;2023-02-05T06:53:59;103547.50;;;8.75;44.78
11395;BME280;5753;54.402;10.220;2023-02-05T06:56:26;103548.53;;;8.91;44.47
11395;BME280;5753;54.402;10.220;2023-02-05T06:58:52;103554.38;;;9.67;42.84
11395;BME280;5753;54.402;10.220;2023-02-05T07:01:18;103546.16;;;10.71;40.45
11395;BME280;5753;54.402;10.220;2023-02-05T07:03:44;103548.38;;;9.14;43.10
11395;BME280;5753;54.402;10.220;2023-02-05T07:06:12;103551.25;;;9.86;41.98
11395;BME280;5753;54.402;10.220;2023-02-05T07:08:39;103552.31;;;9.22;42.80
11395;BME280;5753;54.402;10.220;2023-02-05T07:11:05;103558.03;;;10.12;41.98
11395;BME280;5753;54.402;10.220;2023-02-05T07:13:31;103554.69;;;9.32;43.24
11395;BME280;5753;54.402;10.220;2023-02-05T07:16:01;103552.13;;;9.06;43.69
11395;BME280;5753;54.402;10.220;2023-02-05T07:18:27;103547.72;;;10.40;41.53
11395;BME280;5753;54.402;10.220;2023-02-05T07:20:53;103546.06;;;9.45;42.32
11395;BME280;5753;54.402;10.220;2023-02-05T07:23:19;103551.78;;;10.08;42.08
11395;BME280;5753;54.402;10.220;2023-02-05T07:25:45;103545.66;;;8.86;44.15
11395;BME280;5753;54.402;10.220;2023-02-05T07:28:11;103551.50;;;9.63;43.17
11395;BME280;5753;54.402;10.220;2023-02-05T07:30:38;103540.63;;;9.40;43.36
11395;BME280;5753;54.402;10.220;2023-02-05T07:33:04;103536.75;;;10.01;42.58
11395;BME280;5753;54.402;10.220;2023-02-05T07:35:32;103540.16;;;9.20;43.83
11395;BME280;5753;54.402;10.220;2023-02-05T07:37:59;103548.22;;;9.65;43.56
11395;BME280;5753;54.402;10.220;2023-02-05T07:40:26;103536.56;;;9.57;43.03
11395;BME280;5753;54.402;10.220;2023-02-05T07:42:52;103549.16;;;9.53;43.58
11395;BME280;5753;54.402;10.220;2023-02-05T07:45:18;103557.09;;;7.20;47.70
11395;BME280;5753;54.402;10.220;2023-02-05T07:47:44;103553.91;;;9.20;44.22
11395;BME280;5753;54.402;10.220;2023-02-05T07:50:10;103553.69;;;9.43;43.62
11395;BME280;5753;54.402;10.220;2023-02-05T07:52:37;103541.13;;;9.22;43.47
11395;BME280;5753;54.402;10.220;2023-02-05T07:55:03;103549.09;;;9.79;42.99
11395;BME280;5753;54.402;10.220;2023-02-05T07:57:29;103553.81;;;9.05;44.40
11395;BME280;5753;54.402;10.220;2023-02-05T07:59:55;103551.84;;;9.82;42.99
11395;BME280;5753;54.402;10.220;2023-02-05T08:02:21;103546.34;;;9.63;42.99
11395;BME280;5753;54.402;10.220;2023-02-05T08:04:47;103553.47;;;8.88;44.92
11395;BME280;5753;54.402;10.220;2023-02-05T08:07:13;103557.25;;;9.45;42.93
11395;BME280;5753;54.402;10.220;2023-02-05T08:09:40;103561.22;;;9.01;44.74
11395;BME280;5753;54.402;10.220;2023-02-05T08:12:06;103567.91;;;9.78;42.97
11395;BME280;5753;54.402;10.220;2023-02-05T08:14:32;103568.44;;;9.33;44.13
11395;BME280;5753;54.402;10.220;2023-02-05T08:16:58;103569.94;;;9.29;43.25
11395;BME280;5753;54.402;10.220;2023-02-05T08:19:25;103575.41;;;9.88;43.69
11395;BME280;5753;54.402;10.220;2023-02-05T08:21:51;103572.88;;;10.16;42.84
11395;BME280;5753;54.402;10.220;2023-02-05T08:24:18;103568.72;;;8.35;46.63
11395;BME280;5753;54.402;10.220;2023-02-05T08:26:44;103574.28;;;10.82;41.28
11395;BME280;5753;54.402;10.220;2023-02-05T08:29:11;103569.28;;;8.94;44.20
11395;BME280;5753;54.402;10.220;2023-02-05T08:31:37;103569.63;;;9.64;43.40
11395;BME280;5753;54.402;10.220;2023-02-05T08:34:04;103566.50;;;9.83;43.63
11395;BME280;5753;54.402;10.220;2023-02-05T08:36:30;103574.06;;;9.93;42.70
11395;BME280;5753;54.402;10.220;2023-02-05T08:38:56;103560.59;;;10.12;42.23
11395;BME280;5753;54.402;10.220;2023-02-05T08:41:23;103565.19;;;10.73;41.06
11395;BME280;5753;54.402;10.220;2023-02-05T08:43:50;103580.88;;;9.79;42.76
11395;BME280;5753;54.402;10.220;2023-02-05T08:46:21;103575.25;;;10.69;41.01
11395;BME280;5753;54.402;10.220;2023-02-05T08:48:50;103577.13;;;10.29;42.07
11395;BME280;5753;54.402;10.220;2023-02-05T08:51:18;103583.53;;;11.68;39.79
11395;BME280;5753;54.402;10.220;2023-02-05T08:53:45;103574.25;;;11.26;40.29
11395;BME280;5753;54.402;10.220;2023-02-05T08:56:12;103572.56;;;11.26;40.43
11395;BME280;5753;54.402;10.220;2023-02-05T08:58:39;103584.03;;;10.02;42.42
11395;BME280;5753;54.402;10.220;2023-02-05T09:01:13;103582.97;;;9.72;43.24
11395;BME280;5753;54.402;10.220;2023-02-05T09:03:40;103584.31;;;10.06;42.52
11395;BME280;5753;54.402;10.220;2023-02-05T09:06:09;103581.03;;;10.37;42.31
11395;BME280;5753;54.402;10.220;2023-02-05T09:08:36;103585.56;;;9.45;44.71
11395;BME280;5753;54.402;10.220;2023-02-05T09:11:03;103587.47;;;11.01;41.14
11395;BME280;5753;54.402;10.220;2023-02-05T09:13:30;103596.19;;;11.18;40.86
11395;BME280;5753;54.402;10.220;2023-02-05T09:15:56;103602.16;;;10.03;42.47
11395;BME280;5753;54.402;10.220;2023-02-05T09:18:22;103602.34;;;10.06;42.37
11395;BME280;5753;54.402;10.220;2023-02-05T09:20:49;103604.38;;;11.71;40.08
11395;BME280;5753;54.402;10.220;2023-02-05T09:23:17;103610.44;;;11.11;40.42
11395;BME280;5753;54.402;10.220;2023-02-05T09:25:44;103609.28;;;11.06;40.26
11395;BME280;5753;54.402;10.220;2023-02-05T09:28:12;103598.13;;;11.37;40.60
11395;BME280;5753;54.402;10.220;2023-02-05T09:30:44;103607.22;;;10.43;42.12
11395;BME280;5753;54.402;10.220;2023-02-05T09:33:11;103603.38;;;9.95;42.73
11395;BME280;5753;54.402;10.220;2023-02-05T09:35:38;103600.63;;;11.20;40.76
11395;BME280;5753;54.402;10.220;2023-02-05T09:38:04;103603.44;;;10.51;41.92
11395;BME280;5753;54.402;10.220;2023-02-05T09:40:58;103615.00;;;10.30;42.54
11395;BME280;5753;54.402;10.220;2023-02-05T09:51:41;103621.78;;;9.88;43.00
11395;BME280;5753;54.402;10.220;2023-02-05T09:56:43;103619.81;;;10.66;42.00
11395;BME280;5753;54.402;10.220;2023-02-05T09:59:16;103613.56;;;11.81;39.72
11395;BME280;5753;54.402;10.220;2023-02-05T10:01:54;103606.03;;;10.38;42.43
11395;BME280;5753;54.402;10.220;2023-02-05T10:04:21;103619.72;;;10.37;42.04
11395;BME280;5753;54.402;10.220;2023-02-05T10:18:25;103626.19;;;10.30;42.85
11395;BME280;5753;54.402;10.220;2023-02-05T10:21:00;103629.16;;;11.67;40.60
11395;BME280;5753;54.402;10.220;2023-02-05T10:23:45;103639.44;;;11.22;41.31
11395;BME280;5753;54.402;10.220;2023-02-05T10:26:15;103649.66;;;10.48;42.94
11395;BME280;5753;54.402;10.220;2023-02-05T10:34:42;103642.28;;;11.56;41.62
11395;BME280;5753;54.402;10.220;2023-02-05T10:37:19;103636.94;;;12.62;39.96
11395;BME280;5753;54.402;10.220;2023-02-05T10:39:47;103633.22;;;11.93;41.42
11395;BME280;5753;54.402;10.220;2023-02-05T10:42:33;103645.69;;;12.17;41.01
11395;BME280;5753;54.402;10.220;2023-02-05T10:45:16;103639.94;;;11.90;41.27
11395;BME280;5753;54.402;10.220;2023-02-05T10:53:05;103649.31;;;12.04;41.74
11395;BME280;5753;54.402;10.220;2023-02-05T10:55:32;103645.84;;;13.17;40.08
11395;BME280;5753;54.402;10.220;2023-02-05T10:57:59;103646.84;;;12.71;40.08
11395;BME280;5753;54.402;10.220;2023-02-05T11:00:27;103640.00;;;12.87;40.51
11395;BME280;5753;54.402;10.220;2023-02-05T11:02:54;103652.06;;;12.54;40.65
11395;BME280;5753;54.402;10.220;2023-02-05T11:05:31;103643.78;;;12.29;42.30
11395;BME280;5753;54.402;10.220;2023-02-05T11:08:01;103644.25;;;12.22;40.93
11395;BME280;5753;54.402;10.220;2023-02-05T11:10:33;103651.34;;;11.64;43.09
11395;BME280;5753;54.402;10.220;2023-02-05T11:13:04;103645.41;;;12.76;41.30
11395;BME280;5753;54.402;10.220;2023-02-05T11:15:59;103647.53;;;11.13;43.61
11395;BME280;5753;54.402;10.220;2023-02-05T11:18:29;103654.25;;;12.00;42.23
11395;BME280;5753;54.402;10.220;2023-02-05T11:21:03;103659.50;;;12.81;41.47
11395;BME280;5753;54.402;10.220;2023-02-05T11:23:30;103657.22;;;12.54;41.92
11395;BME280;5753;54.402;10.220;2023-02-05T11:26:25;103651.16;;;11.90;42.92
11395;BME280;5753;54.402;10.220;2023-02-05T11:28:53;103672.91;;;12.74;41.33
11395;BME280;5753;54.402;10.220;2023-02-05T11:33:46;103684.34;;;13.79;39.36
11395;BME280;5753;54.402;10.220;2023-02-05T11:36:21;103682.75;;;13.30;39.98
11395;BME280;5753;54.402;10.220;2023-02-05T11:38:54;103680.78;;;13.09;40.35
11395;BME280;5753;54.402;10.220;2023-02-05T11:44:01;103660.53;;;12.84;40.61
11395;BME280;5753;54.402;10.220;2023-02-05T11:46:31;103656.53;;;12.10;41.86
11395;BME280;5753;54.402;10.220;2023-02-05T11:49:03;103668.44;;;11.62;42.80
11395;BME280;5753;54.402;10.220;2023-02-05T11:51:43;103675.75;;;11.25;43.93
11395;BME280;5753;54.402;10.220;2023-02-05T11:54:20;103675.09;;;12.03;42.90
11395;BME280;5753;54.402;10.220;2023-02-05T12:00:00;103670.16;;;12.87;41.63
11395;BME280;5753;54.402;10.220;2023-02-05T12:07:45;103669.00;;;10.69;44.37
11395;BME280;5753;54.402;10.220;2023-02-05T12:10:44;103649.41;;;11.60;44.26
11395;BME280;5753;54.402;10.220;2023-02-05T12:13:23;103645.13;;;11.31;44.34
11395;BME280;5753;54.402;10.220;2023-02-05T12:30:15;103627.78;;;12.69;42.83
11395;BME280;5753;54.402;10.220;2023-02-05T12:33:05;103632.06;;;13.52;41.72
11395;BME280;5753;54.402;10.220;2023-02-05T12:39:02;103651.28;;;13.58;41.25
11395;BME280;5753;54.402;10.220;2023-02-05T12:47:25;103663.31;;;13.21;42.17
11395;BME280;5753;54.402;10.220;2023-02-05T12:50:02;103649.56;;;13.06;42.49
11395;BME280;5753;54.402;10.220;2023-02-05T12:52:42;103661.75;;;12.91;43.19
11395;BME280;5753;54.402;10.220;2023-02-05T12:58:03;103666.91;;;13.59;41.29
11395;BME280;5753;54.402;10.220;2023-02-05T13:00:42;103668.44;;;11.62;44.58
11395;BME280;5753;54.402;10.220;2023-02-05T13:03:41;103663.28;;;12.87;42.65
11395;BME280;5753;54.402;10.220;2023-02-05T13:09:05;103670.56;;;11.98;44.92
11395;BME280;5753;54.402;10.220;2023-02-05T13:11:40;103682.53;;;12.44;43.42
11395;BME280;5753;54.402;10.220;2023-02-05T13:16:45;103678.91;;;11.49;45.76
11395;BME280;5753;54.402;10.220;2023-02-05T13:19:23;103672.75;;;12.54;43.71
11395;BME280;5753;54.402;10.220;2023-02-05T13:21:53;103683.19;;;12.09;44.11
11395;BME280;5753;54.402;10.220;2023-02-05T13:24:56;103688.22;;;11.32;45.57
11395;BME280;5753;54.402;10.220;2023-02-05T13:27:49;103685.84;;;12.41;43.76
11395;BME280;5753;54.402;10.220;2023-02-05T13:30:41;103690.59;;;12.03;43.88
11395;BME280;5753;54.402;10.220;2023-02-05T13:33:09;103695.56;;;11.39;46.28
11395;BME280;5753;54.402;10.220;2023-02-05T13:38:16;103698.38;;;11.14;47.42
11395;BME280;5753;54.402;10.220;2023-02-05T13:58:30;103703.34;;;10.68;50.09
11395;BME280;5753;54.402;10.220;2023-02-05T14:01:06;103684.63;;;11.74;47.08
11395;BME280;5753;54.402;10.220;2023-02-05T14:03:42;103695.69;;;10.42;49.44
11395;BME280;5753;54.402;10.220;2023-02-05T14:06:17;103706.13;;;11.29;47.61
11395;BME280;5753;54.402;10.220;2023-02-05T14:08:48;103713.38;;;9.32;55.24
11395;BME280;5753;54.402;10.220;2023-02-05T14:11:17;103731.78;;;9.89;52.19
11395;BME280;5753;54.402;10.220;2023-02-05T14:14:19;103717.97;;;11.25;49.73
11395;BME280;5753;54.402;10.220;2023-02-05T14:16:46;103712.94;;;10.99;49.48
11395;BME280;5753;54.402;10.220;2023-02-05T14:19:22;103706.78;;;12.46;46.72
11395;BME280;5753;54.402;10.220;2023-02-05T14:30:30;103749.25;;;12.04;47.30
11395;BME280;5753;54.402;10.220;2023-02-05T14:35:36;103744.34;;;11.64;48.48
11395;BME280;5753;54.402;10.220;2023-02-05T14:38:30;103754.47;;;11.31;48.83
11395;BME280;5753;54.402;10.220;2023-02-05T14:41:10;103755.13;;;11.57;48.43
11395;BME280;5753;54.402;10.220;2023-02-05T14:43:40;103755.88;;;11.12;50.36
11395;BME280;5753;54.402;10.220;2023-02-05T14:46:27;103735.56;;;12.21;47.33
11395;BME280;5753;54.402;10.220;2023-02-05T14:48:54;103731.06;;;11.73;48.02
11395;BME280;5753;54.402;10.220;2023-02-05T14:51:38;103728.78;;;12.23;46.79
11395;BME280;5753;54.402;10.220;2023-02-05T14:54:20;103732.72;;;10.98;49.85
11395;BME280;5753;54.402;10.220;2023-02-05T14:57:07;103722.81;;;11.78;48.71
11395;BME280;5753;54.402;10.220;2023-02-05T15:08:28;103734.66;;;11.02;49.78
11395;BME280;5753;54.402;10.220;2023-02-05T15:11:14;103749.44;;;11.05;50.73
11395;BME280;5753;54.402;10.220;2023-02-05T15:16:46;103736.53;;;11.48;49.66
11395;BME280;5753;54.402;10.220;2023-02-05T15:19:14;103742.94;;;11.40;48.91
11395;BME280;5753;54.402;10.220;2023-02-05T15:21:46;103747.44;;;12.48;46.66
11395;BME280;5753;54.402;10.220;2023-02-05T15:24:17;103746.38;;;12.14;47.43
11395;BME280;5753;54.402;10.220;2023-02-05T15:27:06;103751.63;;;10.43;51.17
11395;BME280;5753;54.402;10.220;2023-02-05T15:29:44;103753.00;;;10.38;51.84
11395;BME280;5753;54.402;10.220;2023-02-05T15:32:26;103753.59;;;11.75;49.05
11395;BME280;5753;54.402;10.220;2023-02-05T15:35:04;103755.69;;;11.95;48.20
11395;BME280;5753;54.402;10.220;2023-02-05T15:37:45;103760.28;;;12.16;48.44
11395;BME280;5753;54.402;10.220;2023-02-05T15:40:33;103768.72;;;9.63;54.31
11395;BME280;5753;54.402;10.220;2023-02-05T15:43:23;103768.75;;;10.84;52.35
11395;BME280;5753;54.402;10.220;2023-02-05T15:45:56;103773.03;;;10.83;51.09
11395;BME280;5753;54.402;10.220;2023-02-05T15:48:28;103760.25;;;11.85;48.86